India Forums Logo

Madhubala - Ek Ishq Ek Junoon

India Forums > Forum Index > Madhubala - Ek Ishq Ek Junoon
Madhubala, a story of a girl born on the sets of a Bollywood film who grows up to be mesmerizingly beautiful. She has no aspirations of entering the glamorous film industry but fate has
...
<< | 439 | 440 | 441 | 442 | 443 | 444 | 445 | 446 | 447 | 448 | 449 | 450 | 451 | 452 | 453 | 454 | 455 | 456 | 457 | ... >>
TIDTopic SubjectStart DateLast Entry
3515431So let's put it to a Poll! HOLI4/1/2013 11:27:24 PM4/2/2013 4:56:59 AM
3515473RK,Madhu first holi & Bhujang's plan against Sulta4/1/2013 11:59:58 PM4/2/2013 5:52:39 AM
3515474Metromasti:RK,Madhu First holi&Bhujang's plan agai4/2/2013 12:00:33 AM4/2/2013 5:01:39 AM
3515476Metromasti-RK-Madhus first holi /Sultan4/2/2013 12:00:53 AM4/2/2013 5:16:28 AM
3515477looks like makers read my post about the precap4/2/2013 12:01:06 AM4/15/2013 1:47:15 AM
3515480RK, MB first holi & Bhujang's plan against Sultan4/2/2013 12:03:07 AM4/2/2013 6:02:59 AM
3515497cv rk pahle holi rang laga nahi payega madhu4/2/2013 12:16:37 AM4/2/2013 4:49:10 AM
3515502Waiting for rishbala holi rishbala phankhas4/2/2013 12:21:26 AM4/3/2013 10:56:25 PM
3515509AR tweet-loves junk food n love go to germany4/2/2013 12:29:44 AM4/14/2013 10:21:45 PM
3515513Colors In.com ka artical Weekly Update4/2/2013 12:37:20 AM4/2/2013 3:07:46 AM
3515515aryan new pic4/2/2013 12:39:04 AM4/2/2013 3:46:34 AM
3515516mukund fools madhu in real n in reel too...4/2/2013 12:40:30 AM4/14/2013 10:20:41 PM
3515522FANS SAPNA SAPNA HI RAHEGA4/2/2013 12:44:03 AM4/2/2013 2:38:05 AM
3515523War and here we are...4/2/2013 12:45:43 AM4/2/2013 1:16:21 AM
3515528avinesh rekhi replied4/2/2013 12:56:12 AM4/2/2013 5:56:45 AM
3515532M Back..Missed DD & DDians :-)4/2/2013 12:58:12 AM4/2/2013 7:12:26 AM
3515540A Billion Dollar question4/2/2013 1:04:40 AM4/2/2013 9:48:24 PM
3515543Cvs pls make us thank u not bash u after holi4/2/2013 1:06:33 AM4/2/2013 3:40:45 AM
3515548support SULTAN's cold behav with aryan get camphor4/2/2013 1:08:06 AM4/14/2013 10:39:39 PM
3515558Anybody ? ANYBODY ? aNyBoDy ?4/2/2013 1:21:12 AM4/2/2013 3:14:22 AM
3515559The First Holi - An OS4/2/2013 1:22:21 AM5/24/2013 3:46:17 AM
3515568SULTAN 'S WIFE DEAD OR ALIVE4/2/2013 1:27:01 AM4/14/2013 9:04:39 PM
3515576Are we heading for another public Humilation4/2/2013 1:35:22 AM4/2/2013 10:06:39 PM
3515587Yipieee:))4/2/2013 1:44:19 AM4/2/2013 11:43:10 AM
3515600radhaji's expressions-her premonition at holi4/2/2013 1:53:27 AM4/14/2013 10:34:50 PM
3515608Television Celebrity Ranking:DD 3rd & VD 5th4/2/2013 1:57:55 AM4/2/2013 6:59:37 AM
3515611Coincidence or Foreshadowing?4/2/2013 1:58:24 AM4/2/2013 12:51:50 PM
3515614DD VD AR RANKING : 3 ,5,17 RANK4/2/2013 1:59:54 AM4/2/2013 7:01:34 AM
3515636WHat do u expect?????4/2/2013 2:19:37 AM4/2/2013 2:54:18 AM
3515640Question4/2/2013 2:26:01 AM4/2/2013 2:26:01 AM
3515648CONGRATULATION TO FORUM MEMBERS4/2/2013 2:32:59 AM4/2/2013 6:03:09 AM
3515656SBB New Tweet About Vivian HM Seg4/2/2013 2:38:00 AM4/2/2013 3:44:08 AM
3515658Congrats avi for your 17th rank4/2/2013 2:38:02 AM4/2/2013 6:45:18 AM
3515659fun post-madhu lives in goregaon,RK at lokhandwala4/2/2013 2:38:59 AM4/2/2013 5:35:48 AM
3515668Hero will put colour on heroine4/2/2013 2:47:03 AM4/2/2013 3:27:36 AM
3515671Can someone please help!4/2/2013 2:52:52 AM4/2/2013 8:13:05 AM
3515672Serious problem...4/2/2013 2:55:58 AM4/2/2013 4:30:54 AM
3515683One word...!! and Suggestion4/2/2013 3:07:01 AM4/2/2013 7:04:43 AM
3515701bhujang-blue eyed don is only sultan,noone else..4/2/2013 3:22:39 AM4/2/2013 10:10:54 AM
3515715drashti4/2/2013 3:32:21 AM4/2/2013 6:21:01 AM
3515716ki jaan chali jaaye...4/2/2013 3:32:49 AM4/2/2013 8:25:14 PM
3515720Drashti advertise pics credit to uploder4/2/2013 3:34:19 AM4/2/2013 5:50:58 AM
3515722Rk will colour madhu 1st 100% sure4/2/2013 3:34:44 AM4/4/2013 10:04:36 AM
3515744phir se blue rk4/2/2013 3:45:57 AM4/2/2013 5:17:18 AM
3515747rishbala ya sulbala!! inhe kya ho gya hai!!!4/2/2013 3:46:51 AM4/7/2013 3:34:44 AM
3515757who will apply colors to madhubala's face first?4/2/2013 3:51:38 AM4/2/2013 5:54:58 AM
3515761beta man mein laddu foota4/2/2013 3:54:02 AM4/5/2013 7:56:31 AM
3515773what happened to sikki blackmailing dips for film?4/2/2013 4:01:05 AM4/2/2013 10:17:03 PM
3515799Why hate Sultan ??4/2/2013 4:26:02 AM4/2/2013 4:26:02 AM
3515802kab 8:30 ayega?4/2/2013 4:29:28 AM4/2/2013 5:39:57 AM
3515810means RISHBALA dream sequence on sat was in U.S.4/2/2013 4:36:11 AM4/2/2013 10:48:05 PM
3515815Vivian & Vahbiz Honeymoon Episode24/2/2013 4:38:52 AM4/2/2013 8:22:36 AM
3515831VD...the best...4/2/2013 4:50:50 AM4/2/2013 1:05:47 PM
3515832Vivian's New Pic4/2/2013 4:50:51 AM4/2/2013 5:29:26 AM
3515840cutest pics of 1/4/2013...enjoy4/2/2013 5:01:15 AM4/2/2013 6:58:58 AM
3515842May be...4/2/2013 5:01:58 AM4/2/2013 8:28:30 AM
3515848VALENTINE KA MOOD OFF KIYA THA AB HOLI KA BHI YAH4/2/2013 5:11:41 AM4/2/2013 5:23:12 AM
3515849SS:Mujhe Meri BIWI ki lat lag gayi prt2 updtd4/2/2013 5:13:14 AM4/3/2013 7:58:12 AM
3515864silent reader's take4/2/2013 5:24:12 AM4/2/2013 9:11:48 AM
3515867rishbala holi4/2/2013 5:25:31 AM4/2/2013 7:33:05 AM
3515877How many of you want RK to know Sultan is a don4/2/2013 5:33:57 AM4/2/2013 5:38:58 AM
3515964RISHBALA vm - TUM HI HO(AASHIQUI 2)4/2/2013 6:52:54 AM7/11/2013 11:50:08 PM
3515991##CONGRAT ANU_SAKSHI BEING ROCKERRZZZ##4/2/2013 7:14:01 AM4/14/2013 9:00:44 AM
3516008Someone help me!!!4/2/2013 7:24:48 AM4/2/2013 1:05:23 PM
3516011Colors New Tweet about Madhubala at 6.51 pm4/2/2013 7:25:42 AM4/2/2013 8:55:33 AM
3516021MB characters4/2/2013 7:31:22 AM4/2/2013 8:39:19 AM
3516052Vivian and Vahbbiz pic <34/2/2013 7:50:07 AM4/2/2013 8:49:39 AM
3516055What's going on here!!4/2/2013 7:51:25 AM4/2/2013 9:03:00 AM
3516071deepak & amaan ka yarana :P4/2/2013 8:00:22 AM4/2/2013 11:34:30 PM
3516083Guys Rishabala time again4/2/2013 8:03:43 AM4/2/2013 8:59:32 AM
3516126Ishq tera Tarpave || rk madhu Vm4/2/2013 8:25:31 AM4/14/2013 9:20:45 PM
3516137query4/2/2013 8:29:07 AM4/2/2013 8:43:17 AM
3516166Any Spoilers? Pls share na...4/2/2013 8:40:56 AM4/2/2013 8:40:56 AM
35162052nd April-Short LU-Piya ke rang rangdeni-Rishbala4/2/2013 9:01:43 AM4/2/2013 7:47:54 PM
3516223Episode 235 Discussion: 2nd April 20134/2/2013 9:13:33 AM4/3/2013 9:06:34 AM
<< | 439 | 440 | 441 | 442 | 443 | 444 | 445 | 446 | 447 | 448 | 449 | 450 | 451 | 452 | 453 | 454 | 455 | 456 | 457 | ... >>